Time;durP1;ratioP1;P1;durP2;ratioP2;P2;SDS_P1;SDS_P2;PMS_P1;PMS_P2;Temp;Humidity;BMP_temperature;BMP_pressure;BME280_temperature;BME280_humidity;BME280_pressure;Samples;Min_cycle;Max_cycle;Signal;HPM_P1;HPM_P2
2021/04/29 00:01:54;;;;;;;7.60;5.57;;;;;;;;;;5021329;28;20668;-74
2021/04/29 00:04:58;;;;;;;11.17;5.53;;;;;;;;;;5013850;28;20184;-74
2021/04/29 00:08:03;;;;;;;8.60;5.50;;;;;;;;;;5013417;28;20545;-74
2021/04/29 00:11:09;;;;;;;8.37;6.07;;;;;;;;;;5020563;28;20205;-74
2021/04/29 00:14:13;;;;;;;13.87;6.33;;;;;;;;;;5020039;28;20185;-74
2021/04/29 00:17:17;;;;;;;9.80;6.77;;;;;;;;;;5033471;28;20225;-73
2021/04/29 00:20:23;;;;;;;9.57;6.70;;;;;;;;;;5018293;28;20212;-74
2021/04/29 00:23:29;;;;;;;14.60;7.00;;;;;;;;;;5013390;28;20186;-74
2021/04/29 00:26:39;;;;;;;9.97;6.90;;;;;;;;;;5015954;28;20544;-75
2021/04/29 00:29:43;;;;;;;12.10;6.90;;;;;;;;;;5033341;28;20181;-74
2021/04/29 00:32:48;;;;;;;11.67;6.77;;;;;;;;;;5021054;28;20192;-73
2021/04/29 00:35:52;;;;;;;10.53;7.17;;;;;;;;;;5014314;28;20237;-74
2021/04/29 00:38:56;;;;;;;13.07;7.50;;;;;;;;;;5014009;28;20185;-74
2021/04/29 00:42:01;;;;;;;9.97;6.80;;;;;;;;;;5013434;28;20189;-74
2021/04/29 00:45:07;;;;;;;16.67;6.80;;;;;;;;;;5012738;28;20660;-74
2021/04/29 00:48:12;;;;;;;11.40;7.67;;;;;;;;;;5019474;28;20655;-74
2021/04/29 00:51:18;;;;;;;15.17;6.60;;;;;;;;;;5032750;28;20193;-74
2021/04/29 00:54:22;;;;;;;9.73;6.33;;;;;;;;;;5033029;28;20185;-74
2021/04/29 00:57:26;;;;;;;9.13;6.30;;;;;;;;;;5019561;28;20213;-74
2021/04/29 01:00:30;;;;;;;9.23;5.63;;;;;;;;;;5032742;28;20181;-73
2021/04/29 01:03:54;;;;;;;8.53;5.87;;;;;;;;;;5021771;28;20190;-74
2021/04/29 01:07:01;;;;;;;7.10;5.17;;;;;;;;;;5027457;28;20217;-75
2021/04/29 01:10:12;;;;;;;11.00;5.97;;;;;;;;;;5012930;28;20182;-73
2021/04/29 01:13:22;;;;;;;6.73;5.47;;;;;;;;;;5031583;28;20192;-74
2021/04/29 01:16:26;;;;;;;12.73;6.17;;;;;;;;;;5020615;28;20232;-74
2021/04/29 01:19:44;;;;;;;10.83;5.10;;;;;;;;;;5029072;28;20529;-74
2021/04/29 01:23:04;;;;;;;8.67;5.60;;;;;;;;;;5027144;28;20200;-74
2021/04/29 01:26:30;;;;;;;8.73;5.70;;;;;;;;;;5023734;28;20217;-74
2021/04/29 01:29:34;;;;;;;8.40;5.70;;;;;;;;;;5012844;28;20185;-74
2021/04/29 01:32:41;;;;;;;8.27;5.60;;;;;;;;;;5013872;28;20196;-74
2021/04/29 01:35:45;;;;;;;10.33;5.60;;;;;;;;;;5023616;28;20232;-74
2021/04/29 01:38:50;;;;;;;8.70;5.87;;;;;;;;;;5017569;28;20185;-74
2021/04/29 01:41:54;;;;;;;10.23;5.30;;;;;;;;;;5010699;28;20655;-74
2021/04/29 01:44:59;;;;;;;16.77;5.57;;;;;;;;;;5034210;28;20201;-74
2021/04/29 01:48:05;;;;;;;9.10;5.37;;;;;;;;;;5035930;28;20196;-74
2021/04/29 01:51:10;;;;;;;8.13;5.70;;;;;;;;;;5016421;28;20201;-74
2021/04/29 01:54:16;;;;;;;7.90;5.17;;;;;;;;;;5016037;28;20201;-73
2021/04/29 01:57:21;;;;;;;7.57;5.33;;;;;;;;;;5015601;28;20229;-74
2021/04/29 02:00:26;;;;;;;9.37;5.27;;;;;;;;;;5016005;28;20514;-74
2021/04/29 02:03:30;;;;;;;7.90;5.17;;;;;;;;;;5015974;28;20177;-74
2021/04/29 02:06:43;;;;;;;6.37;4.67;;;;;;;;;;5010076;28;20217;-74
2021/04/29 02:09:47;;;;;;;6.53;4.70;;;;;;;;;;5035256;28;20197;-74
2021/04/29 02:12:57;;;;;;;5.83;4.70;;;;;;;;;;5023232;28;20200;-73
2021/04/29 02:16:07;;;;;;;7.47;5.00;;;;;;;;;;5024152;28;20589;-74
2021/04/29 02:19:13;;;;;;;5.07;4.57;;;;;;;;;;5015928;28;20185;-73
2021/04/29 02:22:17;;;;;;;5.13;4.43;;;;;;;;;;5015495;28;20178;-74
2021/04/29 02:25:26;;;;;;;6.80;4.37;;;;;;;;;;5029474;28;20201;-74
2021/04/29 02:28:30;;;;;;;4.47;3.50;;;;;;;;;;5022118;28;20204;-73
2021/04/29 02:31:36;;;;;;;5.37;3.90;;;;;;;;;;5035161;28;20200;-74
2021/04/29 02:34:41;;;;;;;5.23;3.90;;;;;;;;;;5022972;28;20201;-74
2021/04/29 02:37:49;;;;;;;4.20;3.40;;;;;;;;;;5015208;28;20190;-74
2021/04/29 02:40:56;;;;;;;4.60;3.80;;;;;;;;;;5008923;28;20193;-74
2021/04/29 02:44:04;;;;;;;5.87;3.50;;;;;;;;;;5023354;28;20181;-74
2021/04/29 02:47:09;;;;;;;5.70;3.60;;;;;;;;;;5016113;28;20561;-73
2021/04/29 02:50:17;;;;;;;4.60;3.40;;;;;;;;;;5003028;28;20182;-74
2021/04/29 02:53:37;;;;;;;5.73;3.40;;;;;;;;;;5005164;28;20186;-74
2021/04/29 02:56:42;;;;;;;5.70;3.77;;;;;;;;;;5028668;28;20237;-74
2021/04/29 02:59:50;;;;;;;4.37;3.47;;;;;;;;;;5014671;28;20205;-73
2021/04/29 03:02:55;;;;;;;3.73;3.30;;;;;;;;;;5002825;28;20181;-74
2021/04/29 03:05:59;;;;;;;7.67;3.57;;;;;;;;;;5015719;28;20217;-74
2021/04/29 03:09:06;;;;;;;5.10;2.80;;;;;;;;;;5014535;28;20185;-73
2021/04/29 03:12:10;;;;;;;7.27;2.90;;;;;;;;;;5014409;28;20197;-74
2021/04/29 03:15:23;;;;;;;4.67;3.07;;;;;;;;;;5021310;28;20529;-74
2021/04/29 03:18:35;;;;;;;4.80;3.23;;;;;;;;;;5034322;28;20182;-74
2021/04/29 03:21:39;;;;;;;3.57;3.00;;;;;;;;;;5034049;28;20196;-73
2021/04/29 03:24:43;;;;;;;7.50;2.90;;;;;;;;;;5032198;28;20180;-74
2021/04/29 03:27:48;;;;;;;7.40;3.70;;;;;;;;;;5027502;23;20229;-74
2021/04/29 03:30:56;;;;;;;4.03;2.97;;;;;;;;;;5014341;28;20185;-74
2021/04/29 03:34:00;;;;;;;5.87;3.00;;;;;;;;;;5013230;28;20668;-74
2021/04/29 03:37:04;;;;;;;4.57;3.30;;;;;;;;;;5011149;28;20221;-75
2021/04/29 03:40:09;;;;;;;4.50;2.90;;;;;;;;;;4994127;28;20514;-74
2021/04/29 03:43:13;;;;;;;6.07;3.03;;;;;;;;;;4993669;28;20190;-75
2021/04/29 03:46:18;;;;;;;10.87;3.60;;;;;;;;;;4994649;28;20549;-74
2021/04/29 03:49:22;;;;;;;8.77;3.40;;;;;;;;;;5011485;28;20664;-74
2021/04/29 03:52:26;;;;;;;5.13;3.40;;;;;;;;;;5013967;28;20181;-74
2021/04/29 03:55:31;;;;;;;4.33;3.00;;;;;;;;;;4990781;28;20672;-74
2021/04/29 03:58:35;;;;;;;5.50;2.90;;;;;;;;;;5012470;28;20194;-74
2021/04/29 04:01:39;;;;;;;4.07;2.37;;;;;;;;;;5013903;28;20177;-73
2021/04/29 04:04:43;;;;;;;3.63;2.53;;;;;;;;;;5013274;28;20193;-75
2021/04/29 04:07:47;;;;;;;4.93;2.30;;;;;;;;;;5013889;28;20182;-74
2021/04/29 04:10:51;;;;;;;5.43;2.60;;;;;;;;;;5013252;28;20197;-73
2021/04/29 04:13:57;;;;;;;3.50;2.80;;;;;;;;;;5012560;28;20197;-74
2021/04/29 04:17:02;;;;;;;3.33;2.60;;;;;;;;;;5013538;28;20225;-73
2021/04/29 04:20:07;;;;;;;5.23;2.83;;;;;;;;;;5000978;28;20192;-74
2021/04/29 04:23:11;;;;;;;3.80;2.63;;;;;;;;;;4982031;28;20189;-74
2021/04/29 04:26:15;;;;;;;2.97;2.57;;;;;;;;;;4993124;28;20218;-74
2021/04/29 04:29:19;;;;;;;2.80;2.50;;;;;;;;;;5000694;28;20660;-73
2021/04/29 04:32:23;;;;;;;2.90;2.40;;;;;;;;;;5013202;28;20177;-73
2021/04/29 04:35:28;;;;;;;3.10;2.40;;;;;;;;;;5012907;28;20221;-73
2021/04/29 04:38:32;;;;;;;4.47;2.67;;;;;;;;;;5013263;28;20181;-73
2021/04/29 04:41:36;;;;;;;2.33;2.13;;;;;;;;;;4990207;28;20185;-73
2021/04/29 04:44:41;;;;;;;2.53;2.20;;;;;;;;;;4990181;28;20197;-73
2021/04/29 04:47:46;;;;;;;2.27;2.07;;;;;;;;;;4996204;28;20206;-73
2021/04/29 04:50:50;;;;;;;2.33;1.97;;;;;;;;;;5008637;28;20197;-73
2021/04/29 04:53:54;;;;;;;2.23;2.03;;;;;;;;;;5012196;28;20652;-73
2021/04/29 04:56:59;;;;;;;2.20;1.90;;;;;;;;;;5012016;28;20241;-73
2021/04/29 05:00:06;;;;;;;3.53;2.00;;;;;;;;;;5013081;28;20182;-73
2021/04/29 05:03:11;;;;;;;2.40;1.90;;;;;;;;;;4993661;28;20186;-73
2021/04/29 05:06:16;;;;;;;2.00;1.80;;;;;;;;;;4990953;28;20217;-73
2021/04/29 05:09:21;;;;;;;3.37;1.80;;;;;;;;;;5016156;28;20514;-72
2021/04/29 05:12:25;;;;;;;2.73;2.17;;;;;;;;;;5017176;28;20181;-73
2021/04/29 05:15:31;;;;;;;4.30;2.10;;;;;;;;;;5016382;28;20208;-73
2021/04/29 05:18:35;;;;;;;4.97;4.50;;;;;;;;;;5016530;28;20185;-72
2021/04/29 05:21:39;;;;;;;2.40;2.20;;;;;;;;;;5015712;28;20174;-72
2021/04/29 05:24:43;;;;;;;1.73;1.60;;;;;;;;;;5016751;28;20627;-73
2021/04/29 05:27:48;;;;;;;1.80;1.63;;;;;;;;;;5016803;28;20201;-73
2021/04/29 05:30:52;;;;;;;1.63;1.50;;;;;;;;;;5016671;28;20193;-73
2021/04/29 05:33:56;;;;;;;2.07;1.50;;;;;;;;;;5015257;28;20193;-73
2021/04/29 05:37:00;;;;;;;4.03;2.80;;;;;;;;;;5015279;28;20225;-73
2021/04/29 05:40:05;;;;;;;1.87;1.53;;;;;;;;;;5004241;28;20193;-73
2021/04/29 05:43:10;;;;;;;5.73;3.87;;;;;;;;;;5015764;28;20209;-73
2021/04/29 05:46:14;;;;;;;2.97;1.53;;;;;;;;;;5008869;28;20239;-72
2021/04/29 05:49:18;;;;;;;1.60;1.30;;;;;;;;;;5023866;28;20204;-73
2021/04/29 05:52:23;;;;;;;1.30;1.20;;;;;;;;;;5035607;28;20196;-73
2021/04/29 05:55:27;;;;;;;1.77;1.10;;;;;;;;;;5035145;28;20184;-73
2021/04/29 05:58:31;;;;;;;1.17;1.00;;;;;;;;;;5035246;28;20551;-73
2021/04/29 06:01:35;;;;;;;0.80;0.80;;;;;;;;;;5035705;28;20189;-73
2021/04/29 06:04:40;;;;;;;1.10;1.00;;;;;;;;;;5035699;28;20193;-73
2021/04/29 06:07:43;;;;;;;1.93;1.00;;;;;;;;;;5035317;28;20193;-73
2021/04/29 06:10:49;;;;;;;2.37;0.80;;;;;;;;;;5035378;28;20516;-73
2021/04/29 06:13:53;;;;;;;0.90;0.67;;;;;;;;;;5035184;28;20644;-75
2021/04/29 06:16:58;;;;;;;2.00;1.10;;;;;;;;;;5012761;28;20578;-74
2021/04/29 06:20:02;;;;;;;2.37;0.90;;;;;;;;;;5014779;28;20513;-73
2021/04/29 06:23:07;;;;;;;1.73;1.17;;;;;;;;;;5016110;28;20177;-74
2021/04/29 06:26:12;;;;;;;1.67;1.27;;;;;;;;;;5015018;28;20229;-74
2021/04/29 06:29:16;;;;;;;3.43;1.00;;;;;;;;;;5014924;28;20209;-74
2021/04/29 06:32:20;;;;;;;1.47;1.00;;;;;;;;;;5015201;28;20182;-73
2021/04/29 06:35:24;;;;;;;2.13;1.17;;;;;;;;;;5015029;28;20205;-73
2021/04/29 06:38:29;;;;;;;1.20;0.93;;;;;;;;;;5026985;28;20216;-73
2021/04/29 06:41:33;;;;;;;2.33;0.93;;;;;;;;;;5035045;28;20205;-73
2021/04/29 06:44:37;;;;;;;2.40;1.03;;;;;;;;;;5023043;28;20189;-73
2021/04/29 06:47:42;;;;;;;1.33;0.83;;;;;;;;;;5034959;28;20173;-74
2021/04/29 06:50:46;;;;;;;2.20;0.80;;;;;;;;;;5034820;28;20184;-73
2021/04/29 06:53:50;;;;;;;1.63;0.90;;;;;;;;;;5033882;28;20180;-73
2021/04/29 06:56:55;;;;;;;2.53;1.00;;;;;;;;;;5022512;28;20217;-73
2021/04/29 06:59:59;;;;;;;3.33;0.83;;;;;;;;;;5034444;28;20177;-73
2021/04/29 07:03:03;;;;;;;2.20;1.10;;;;;;;;;;5034677;28;20513;-73
2021/04/29 07:06:07;;;;;;;2.53;1.20;;;;;;;;;;5034280;28;20212;-74
2021/04/29 07:09:12;;;;;;;4.13;1.00;;;;;;;;;;5032662;28;20211;-73
2021/04/29 07:12:16;;;;;;;1.10;0.90;;;;;;;;;;5033758;28;20520;-73
2021/04/29 07:15:20;;;;;;;1.63;1.00;;;;;;;;;;5034061;28;20639;-74
2021/04/29 07:18:25;;;;;;;4.07;1.60;;;;;;;;;;5033560;28;20216;-73
2021/04/29 07:21:29;;;;;;;2.17;1.40;;;;;;;;;;5034356;28;20176;-73
2021/04/29 07:24:33;;;;;;;3.00;1.23;;;;;;;;;;5021911;28;20181;-73
2021/04/29 07:27:37;;;;;;;1.10;0.93;;;;;;;;;;5034119;28;20208;-74
2021/04/29 07:30:42;;;;;;;1.40;1.20;;;;;;;;;;5033866;28;20181;-73
2021/04/29 07:33:46;;;;;;;2.97;1.00;;;;;;;;;;5033066;28;20181;-73
2021/04/29 07:36:50;;;;;;;1.97;1.30;;;;;;;;;;5034369;28;20205;-73
2021/04/29 07:40:03;;;;;;;1.30;1.20;;;;;;;;;;4995454;28;20522;-74
2021/04/29 07:43:07;;;;;;;3.23;1.17;;;;;;;;;;5003875;28;20185;-73
2021/04/29 07:46:11;;;;;;;1.53;1.00;;;;;;;;;;5012982;28;20691;-73
2021/04/29 07:49:15;;;;;;;2.10;1.10;;;;;;;;;;5014120;28;20173;-73
2021/04/29 07:52:19;;;;;;;4.40;1.13;;;;;;;;;;5014047;28;20185;-73
2021/04/29 07:55:24;;;;;;;3.50;1.70;;;;;;;;;;5013913;28;20205;-73
2021/04/29 07:58:28;;;;;;;1.87;1.37;;;;;;;;;;5013582;28;20220;-73
2021/04/29 08:01:32;;;;;;;6.27;5.37;;;;;;;;;;5013890;28;20190;-73
2021/04/29 08:04:37;;;;;;;2.90;1.50;;;;;;;;;;5013837;28;20316;-73
2021/04/29 08:07:41;;;;;;;2.83;1.50;;;;;;;;;;5013570;28;20197;-73
2021/04/29 08:10:46;;;;;;;2.43;1.27;;;;;;;;;;5013534;28;20182;-73
2021/04/29 08:13:51;;;;;;;1.33;1.23;;;;;;;;;;5013695;28;20656;-74
2021/04/29 08:16:55;;;;;;;3.57;1.70;;;;;;;;;;5013656;28;20208;-72
2021/04/29 08:20:00;;;;;;;3.03;2.00;;;;;;;;;;5012961;28;20185;-72
2021/04/29 08:23:05;;;;;;;2.10;1.80;;;;;;;;;;5014294;28;20177;-74
2021/04/29 08:26:09;;;;;;;3.67;1.70;;;;;;;;;;5013928;28;20217;-73
2021/04/29 08:29:13;;;;;;;3.40;1.80;;;;;;;;;;5008800;28;20205;-73
2021/04/29 08:32:18;;;;;;;4.17;1.53;;;;;;;;;;5010641;28;20672;-74
2021/04/29 08:35:24;;;;;;;2.67;1.77;;;;;;;;;;5020269;28;20177;-74
2021/04/29 08:38:28;;;;;;;4.13;1.60;;;;;;;;;;5032539;28;20695;-74
2021/04/29 08:41:33;;;;;;;4.43;2.00;;;;;;;;;;5032363;28;20173;-73
2021/04/29 08:44:37;;;;;;;2.50;1.87;;;;;;;;;;5032990;28;20194;-74
2021/04/29 08:47:42;;;;;;;2.67;2.40;;;;;;;;;;5016808;28;20186;-73
2021/04/29 08:50:46;;;;;;;3.47;1.77;;;;;;;;;;5017360;28;20185;-73
2021/04/29 08:53:51;;;;;;;4.30;1.87;;;;;;;;;;5016880;28;20205;-74
2021/04/29 08:56:55;;;;;;;9.53;2.37;;;;;;;;;;4998762;28;20565;-75
2021/04/29 09:00:00;;;;;;;2.53;2.30;;;;;;;;;;5014283;28;20676;-73
2021/04/29 09:03:05;;;;;;;3.97;2.00;;;;;;;;;;4996732;28;20178;-74
2021/04/29 09:06:09;;;;;;;3.80;2.17;;;;;;;;;;4997314;28;20225;-74
2021/04/29 09:09:14;;;;;;;3.00;2.20;;;;;;;;;;5014665;28;20197;-74
2021/04/29 09:12:19;;;;;;;9.30;3.00;;;;;;;;;;5016211;28;20173;-74
2021/04/29 09:15:24;;;;;;;4.40;2.80;;;;;;;;;;5015747;28;20178;-74
2021/04/29 09:18:32;;;;;;;10.20;3.43;;;;;;;;;;5016786;28;20210;-74
2021/04/29 09:21:36;;;;;;;5.13;2.90;;;;;;;;;;4997620;28;20210;-74
2021/04/29 09:24:40;;;;;;;4.60;2.67;;;;;;;;;;4984995;28;20526;-74
2021/04/29 09:27:51;;;;;;;6.23;3.23;;;;;;;;;;4984829;28;20661;-74
2021/04/29 09:31:00;;;;;;;4.57;2.97;;;;;;;;;;4997014;28;20186;-74
2021/04/29 09:34:06;;;;;;;9.77;3.33;;;;;;;;;;4997001;28;20175;-74
2021/04/29 09:37:10;;;;;;;5.27;3.50;;;;;;;;;;4996618;28;20585;-74
2021/04/29 09:40:29;;;;;;;6.13;3.53;;;;;;;;;;4996898;28;20178;-74
2021/04/29 09:43:34;;;;;;;7.07;3.60;;;;;;;;;;4985047;28;20186;-74
2021/04/29 09:46:44;;;;;;;3.70;2.90;;;;;;;;;;4996670;28;20225;-74
2021/04/29 09:49:48;;;;;;;6.00;2.83;;;;;;;;;;4987626;28;20205;-74
2021/04/29 09:53:03;;;;;;;4.77;3.80;;;;;;;;;;5015067;28;20201;-74
2021/04/29 09:56:11;;;;;;;3.93;3.53;;;;;;;;;;5003073;28;20561;-74
2021/04/29 09:59:15;;;;;;;9.53;3.27;;;;;;;;;;5015822;28;20209;-74
2021/04/29 10:02:19;;;;;;;6.80;3.67;;;;;;;;;;5015931;28;20209;-74
2021/04/29 10:05:23;;;;;;;5.53;3.50;;;;;;;;;;5015874;28;20177;-74
2021/04/29 10:08:32;;;;;;;6.53;3.40;;;;;;;;;;5004060;28;20178;-74
2021/04/29 10:11:37;;;;;;;5.27;3.10;;;;;;;;;;5015627;28;20588;-74
2021/04/29 10:14:46;;;;;;;7.47;3.10;;;;;;;;;;5015758;28;20198;-74
2021/04/29 10:17:50;;;;;;;5.23;3.40;;;;;;;;;;5015137;28;20629;-74
2021/04/29 10:20:59;;;;;;;4.07;2.87;;;;;;;;;;5014882;28;20178;-74
2021/04/29 10:24:04;;;;;;;4.10;2.80;;;;;;;;;;5015108;28;20624;-74
2021/04/29 10:27:12;;;;;;;3.93;2.80;;;;;;;;;;5014900;28;20217;-74
2021/04/29 10:30:18;;;;;;;5.17;3.20;;;;;;;;;;5014346;28;20173;-74
2021/04/29 10:33:23;;;;;;;5.57;2.87;;;;;;;;;;5042600;23;20232;-72
2021/04/29 10:36:53;;;;;;;4.23;2.90;;;;;;;;;;5034804;28;20220;-72
2021/04/29 10:39:59;;;;;;;3.97;2.97;;;;;;;;;;5022525;28;20217;-72
2021/04/29 10:43:05;;;;;;;5.30;3.13;;;;;;;;;;5034986;28;20197;-72
2021/04/29 10:46:09;;;;;;;6.73;2.80;;;;;;;;;;5022605;28;20220;-72
2021/04/29 10:49:15;;;;;;;6.53;3.77;;;;;;;;;;5034933;28;20181;-73
2021/04/29 10:52:19;;;;;;;7.03;3.87;;;;;;;;;;5035118;28;20611;-73
2021/04/29 10:55:36;;;;;;;7.63;4.20;;;;;;;;;;5034627;28;20564;-73
2021/04/29 10:58:41;;;;;;;6.53;3.37;;;;;;;;;;5034026;28;20217;-74
2021/04/29 11:01:45;;;;;;;11.97;3.20;;;;;;;;;;5034595;28;20181;-73
2021/04/29 11:04:53;;;;;;;4.67;3.23;;;;;;;;;;5028797;23;21027;-74
2021/04/29 11:08:12;;;;;;;6.00;3.70;;;;;;;;;;5001904;28;20197;-73
2021/04/29 11:11:35;;;;;;;5.67;3.87;;;;;;;;;;5002091;28;20193;-72
2021/04/29 11:14:44;;;;;;;8.27;3.90;;;;;;;;;;5014160;28;20205;-74
2021/04/29 11:18:09;;;;;;;5.13;3.70;;;;;;;;;;4995073;28;20201;-73
2021/04/29 11:21:27;;;;;;;10.60;4.53;;;;;;;;;;5013745;28;20186;-73
2021/04/29 11:24:39;;;;;;;22.43;12.57;;;;;;;;;;5014840;28;20186;-73
2021/04/29 11:27:43;;;;;;;10.07;4.63;;;;;;;;;;5012329;28;20205;-71
2021/04/29 11:30:54;;;;;;;7.23;4.00;;;;;;;;;;5003358;28;20181;-72
2021/04/29 11:33:58;;;;;;;18.10;10.33;;;;;;;;;;5000921;28;20202;-72
2021/04/29 11:37:02;;;;;;;8.23;4.00;;;;;;;;;;4994853;28;20576;-72
2021/04/29 11:40:08;;;;;;;4.40;3.83;;;;;;;;;;4994874;28;20664;-72
2021/04/29 11:43:12;;;;;;;5.70;3.93;;;;;;;;;;4996342;28;20190;-73
2021/04/29 11:46:21;;;;;;;12.20;3.93;;;;;;;;;;5002450;28;20209;-72
2021/04/29 11:49:25;;;;;;;4.07;3.67;;;;;;;;;;5005708;28;20197;-73
2021/04/29 11:52:29;;;;;;;8.10;3.73;;;;;;;;;;4994671;28;20206;-72
2021/04/29 11:55:34;;;;;;;5.13;4.17;;;;;;;;;;4994240;28;20214;-72
2021/04/29 11:58:39;;;;;;;6.80;3.97;;;;;;;;;;4994095;28;20205;-72
2021/04/29 12:01:55;;;;;;;6.80;3.77;;;;;;;;;;4990581;28;20202;-74
2021/04/29 12:04:58;;;;;;;4.87;3.60;;;;;;;;;;4990901;28;20716;-72
2021/04/29 12:08:05;;;;;;;7.30;4.23;;;;;;;;;;5012601;28;20180;-73
2021/04/29 12:11:12;;;;;;;13.23;4.07;;;;;;;;;;4990002;28;20179;-72
2021/04/29 12:14:27;;;;;;;6.93;4.03;;;;;;;;;;4990993;28;20185;-72
2021/04/29 12:17:35;;;;;;;6.90;4.17;;;;;;;;;;4996863;28;20217;-72
2021/04/29 12:20:40;;;;;;;6.03;4.50;;;;;;;;;;5009948;28;20221;-73
2021/04/29 12:23:46;;;;;;;7.67;4.80;;;;;;;;;;4990285;28;20202;-72
2021/04/29 12:26:50;;;;;;;6.93;4.33;;;;;;;;;;5007279;28;20221;-73
2021/04/29 12:30:06;;;;;;;7.73;3.87;;;;;;;;;;5010251;28;20185;-72
2021/04/29 12:33:21;;;;;;;9.87;4.80;;;;;;;;;;5009553;28;20197;-72
2021/04/29 12:36:26;;;;;;;10.60;4.90;;;;;;;;;;5009069;28;20221;-72
2021/04/29 12:39:34;;;;;;;4.07;3.50;;;;;;;;;;5009522;28;20197;-72
2021/04/29 12:42:38;;;;;;;9.03;3.70;;;;;;;;;;5009662;28;20200;-73
2021/04/29 12:46:03;;;;;;;5.13;3.77;;;;;;;;;;5009451;28;20213;-72
2021/04/29 12:49:12;;;;;;;7.57;4.00;;;;;;;;;;5009208;28;20174;-72
2021/04/29 12:52:17;;;;;;;5.40;4.00;;;;;;;;;;5009433;28;20178;-72
2021/04/29 12:55:22;;;;;;;6.47;4.00;;;;;;;;;;5001999;28;20197;-72
2021/04/29 12:58:28;;;;;;;4.47;3.97;;;;;;;;;;5004149;28;20193;-71
2021/04/29 13:01:32;;;;;;;9.13;4.50;;;;;;;;;;5012945;28;20193;-71
2021/04/29 13:04:40;;;;;;;6.27;4.13;;;;;;;;;;5013131;28;20186;-72
2021/04/29 13:07:45;;;;;;;7.57;4.63;;;;;;;;;;5012983;28;20181;-72
2021/04/29 13:10:49;;;;;;;9.20;4.23;;;;;;;;;;5013574;28;20174;-72
2021/04/29 13:14:11;;;;;;;6.10;4.60;;;;;;;;;;5031391;28;20197;-72
2021/04/29 13:17:20;;;;;;;5.93;3.70;;;;;;;;;;5032853;28;20220;-72
2021/04/29 13:20:30;;;;;;;6.50;3.77;;;;;;;;;;5020296;28;20217;-72
2021/04/29 13:23:34;;;;;;;5.83;4.40;;;;;;;;;;5032567;28;20189;-73
2021/04/29 13:26:43;;;;;;;9.43;4.30;;;;;;;;;;5032156;28;20675;-73
2021/04/29 13:29:47;;;;;;;7.40;3.80;;;;;;;;;;5035380;28;20173;-73
2021/04/29 13:32:52;;;;;;;7.73;3.97;;;;;;;;;;5036394;28;20177;-72
2021/04/29 13:35:55;;;;;;;7.00;3.90;;;;;;;;;;5036364;28;20208;-72
2021/04/29 13:39:01;;;;;;;7.80;4.50;;;;;;;;;;5015205;28;20663;-77
2021/04/29 13:42:06;;;;;;;6.27;4.30;;;;;;;;;;5004674;28;20185;-76
2021/04/29 13:45:11;;;;;;;9.10;4.50;;;;;;;;;;5015650;28;20202;-78
2021/04/29 13:48:15;;;;;;;8.07;4.77;;;;;;;;;;4992874;28;20181;-77
2021/04/29 13:51:29;;;;;;;6.20;4.50;;;;;;;;;;4997517;28;20178;-78
2021/04/29 13:54:33;;;;;;;6.83;4.53;;;;;;;;;;4999484;28;20198;-78
2021/04/29 13:57:37;;;;;;;8.00;4.70;;;;;;;;;;5007457;28;20668;-77
2021/04/29 14:00:41;;;;;;;7.40;4.60;;;;;;;;;;5009659;28;20676;-77
2021/04/29 14:03:45;;;;;;;4.60;3.80;;;;;;;;;;5008030;28;20186;-78
2021/04/29 14:06:50;;;;;;;8.07;3.80;;;;;;;;;;4987125;28;20229;-77
2021/04/29 14:09:54;;;;;;;6.90;4.13;;;;;;;;;;4996015;28;20174;-77
2021/04/29 14:13:00;;;;;;;10.13;4.17;;;;;;;;;;5005358;28;20664;-78
2021/04/29 14:16:06;;;;;;;6.07;4.23;;;;;;;;;;4995985;28;20226;-78
2021/04/29 14:19:13;;;;;;;9.67;4.77;;;;;;;;;;4996938;28;20621;-79
2021/04/29 14:22:17;;;;;;;9.07;4.27;;;;;;;;;;4998149;28;20182;-78
2021/04/29 14:25:24;;;;;;;5.97;3.90;;;;;;;;;;4996921;28;20182;-78
2021/04/29 14:28:28;;;;;;;5.43;3.77;;;;;;;;;;4996777;28;20526;-78
2021/04/29 14:31:33;;;;;;;6.73;4.67;;;;;;;;;;4986079;28;20660;-78
2021/04/29 14:34:37;;;;;;;7.73;4.07;;;;;;;;;;5003562;28;20205;-78
2021/04/29 14:37:44;;;;;;;8.77;4.57;;;;;;;;;;5003478;28;20557;-78
2021/04/29 14:40:48;;;;;;;7.80;4.33;;;;;;;;;;4983805;28;20205;-77
2021/04/29 14:43:52;;;;;;;7.63;4.30;;;;;;;;;;4996611;28;20191;-78
2021/04/29 14:46:56;;;;;;;11.17;4.77;;;;;;;;;;4998044;28;20225;-78
2021/04/29 14:50:00;;;;;;;5.83;4.13;;;;;;;;;;4995559;28;20178;-78
2021/04/29 14:53:08;;;;;;;11.00;4.50;;;;;;;;;;4996105;28;20182;-78
2021/04/29 14:56:13;;;;;;;5.33;4.13;;;;;;;;;;4995884;28;20210;-78
2021/04/29 14:59:17;;;;;;;8.70;4.37;;;;;;;;;;4996303;28;20178;-78
2021/04/29 15:02:21;;;;;;;8.03;4.57;;;;;;;;;;4985656;28;20194;-77
2021/04/29 15:05:25;;;;;;;6.00;3.77;;;;;;;;;;4995637;28;20218;-78
2021/04/29 15:08:29;;;;;;;6.67;4.50;;;;;;;;;;4995379;28;20178;-77
2021/04/29 15:11:35;;;;;;;31.77;14.60;;;;;;;;;;4994163;28;20178;-77
2021/04/29 15:14:40;;;;;;;19.53;11.37;;;;;;;;;;4995294;28;20656;-77
2021/04/29 15:17:44;;;;;;;10.47;5.80;;;;;;;;;;4982907;28;20190;-77
2021/04/29 15:20:49;;;;;;;6.77;4.60;;;;;;;;;;4995677;28;20202;-77
2021/04/29 15:23:53;;;;;;;7.00;4.50;;;;;;;;;;4993962;28;20518;-77
2021/04/29 15:26:57;;;;;;;7.13;4.60;;;;;;;;;;4994896;28;20214;-77
2021/04/29 15:30:03;;;;;;;9.20;4.33;;;;;;;;;;4995363;28;20538;-78
2021/04/29 15:33:07;;;;;;;5.73;4.40;;;;;;;;;;4995286;28;20178;-78
2021/04/29 15:36:11;;;;;;;6.23;4.10;;;;;;;;;;4994870;28;20221;-78
2021/04/29 15:39:15;;;;;;;8.43;4.53;;;;;;;;;;4993874;28;20179;-77
2021/04/29 15:42:19;;;;;;;7.50;3.97;;;;;;;;;;4982480;28;20653;-77
2021/04/29 15:45:23;;;;;;;6.20;4.30;;;;;;;;;;4982737;28;20182;-77
2021/04/29 15:48:27;;;;;;;5.17;3.80;;;;;;;;;;4982328;28;20201;-77
2021/04/29 15:51:32;;;;;;;5.33;3.83;;;;;;;;;;4994503;28;20186;-77
2021/04/29 15:54:37;;;;;;;9.07;3.90;;;;;;;;;;4994542;28;20182;-78
2021/04/29 15:57:42;;;;;;;7.97;4.17;;;;;;;;;;4994407;28;20633;-77
2021/04/29 16:00:47;;;;;;;5.40;4.10;;;;;;;;;;5015196;28;20209;-78
2021/04/29 16:03:51;;;;;;;7.30;4.43;;;;;;;;;;5003520;28;20186;-77
2021/04/29 16:06:55;;;;;;;6.10;4.10;;;;;;;;;;5013995;28;20220;-78
2021/04/29 16:10:00;;;;;;;9.17;4.20;;;;;;;;;;5001762;28;20185;-78
2021/04/29 16:13:06;;;;;;;6.10;3.97;;;;;;;;;;5013898;28;20185;-80
2021/04/29 16:16:10;;;;;;;11.77;4.17;;;;;;;;;;5003451;28;20452;-79
2021/04/29 16:19:14;;;;;;;8.87;4.50;;;;;;;;;;5015246;28;20193;-80
2021/04/29 16:22:18;;;;;;;7.57;4.23;;;;;;;;;;5003334;28;20182;-79
2021/04/29 16:25:23;;;;;;;8.27;4.13;;;;;;;;;;5003011;28;20193;-79
2021/04/29 16:28:37;;;;;;;7.20;4.07;;;;;;;;;;5004462;28;20185;-79
2021/04/29 16:31:41;;;;;;;5.67;3.77;;;;;;;;;;5000886;28;20193;-78
2021/04/29 16:34:46;;;;;;;5.77;3.97;;;;;;;;;;4974864;28;20185;-78
2021/04/29 16:37:51;;;;;;;5.67;3.90;;;;;;;;;;4997680;28;20193;-78
2021/04/29 16:40:56;;;;;;;5.97;4.47;;;;;;;;;;5000233;28;20217;-78
2021/04/29 16:44:01;;;;;;;6.97;4.27;;;;;;;;;;4995874;28;20206;-78
2021/04/29 16:47:05;;;;;;;6.73;4.20;;;;;;;;;;4993492;28;20218;-77
2021/04/29 16:50:10;;;;;;;6.57;4.17;;;;;;;;;;4995009;28;20193;-78
2021/04/29 16:53:15;;;;;;;7.77;4.17;;;;;;;;;;4993498;28;20558;-78
2021/04/29 16:56:19;;;;;;;8.13;4.40;;;;;;;;;;4993144;28;20218;-79
2021/04/29 16:59:23;;;;;;;5.53;4.00;;;;;;;;;;4993770;28;20175;-78
2021/04/29 17:02:27;;;;;;;6.60;4.03;;;;;;;;;;4982297;28;20186;-78
2021/04/29 17:05:32;;;;;;;8.00;4.80;;;;;;;;;;4997192;28;20233;-79
2021/04/29 17:08:36;;;;;;;6.10;4.83;;;;;;;;;;4997203;28;20182;-78
2021/04/29 17:11:43;;;;;;;13.27;6.43;;;;;;;;;;4997289;28;20174;-78
2021/04/29 17:14:48;;;;;;;9.33;6.63;;;;;;;;;;5019932;28;20178;-78
2021/04/29 17:17:53;;;;;;;13.37;6.70;;;;;;;;;;5005220;28;20213;-77
2021/04/29 17:20:58;;;;;;;7.80;6.20;;;;;;;;;;5009662;28;20206;-78
2021/04/29 17:24:02;;;;;;;9.67;4.93;;;;;;;;;;4983602;28;20190;-77
2021/04/29 17:27:08;;;;;;;8.20;4.80;;;;;;;;;;5005383;28;20217;-77
2021/04/29 17:30:14;;;;;;;8.40;4.80;;;;;;;;;;5004328;28;20185;-77
2021/04/29 17:33:19;;;;;;;7.87;4.93;;;;;;;;;;4991339;28;20177;-78
2021/04/29 17:36:23;;;;;;;6.83;5.60;;;;;;;;;;5002074;28;20209;-77
2021/04/29 17:39:27;;;;;;;7.80;5.17;;;;;;;;;;5002075;28;20178;-77
2021/04/29 17:42:32;;;;;;;5.97;4.30;;;;;;;;;;4979388;28;20205;-77
2021/04/29 17:45:37;;;;;;;7.73;5.20;;;;;;;;;;5003004;28;20221;-77
2021/04/29 17:48:41;;;;;;;9.27;6.07;;;;;;;;;;5013341;28;20181;-77
2021/04/29 17:51:45;;;;;;;7.70;5.33;;;;;;;;;;5002060;28;20178;-78
2021/04/29 17:54:49;;;;;;;12.13;5.40;;;;;;;;;;4982557;28;20174;-77
2021/04/29 17:57:53;;;;;;;9.33;5.43;;;;;;;;;;4993550;28;20179;-77
2021/04/29 18:00:57;;;;;;;7.10;5.50;;;;;;;;;;4993497;28;20197;-77
2021/04/29 18:04:03;;;;;;;6.53;5.60;;;;;;;;;;5013744;28;20193;-77
2021/04/29 18:07:07;;;;;;;6.70;5.27;;;;;;;;;;4994171;28;20566;-76
2021/04/29 18:10:12;;;;;;;9.30;6.00;;;;;;;;;;5001762;28;20189;-79
2021/04/29 18:13:16;;;;;;;9.20;6.80;;;;;;;;;;5006369;28;20190;-77
2021/04/29 18:16:20;;;;;;;11.53;8.20;;;;;;;;;;5001233;28;20225;-77
2021/04/29 18:19:25;;;;;;;16.73;10.07;;;;;;;;;;4993672;28;20657;-76
2021/04/29 18:22:29;;;;;;;10.83;8.70;;;;;;;;;;4978223;28;20212;-76
2021/04/29 18:25:33;;;;;;;16.57;10.00;;;;;;;;;;5000815;28;20221;-76
2021/04/29 18:28:52;;;;;;;13.17;8.77;;;;;;;;;;5012404;28;20671;-76
2021/04/29 18:32:07;;;;;;;11.37;6.77;;;;;;;;;;5011809;28;20193;-77